Terminal Aerodrome Forecast
Issued by NWS Grand Rapids, MI

Home | Current Version | Previous Version | Text Only | Print | Product List | Glossary On
Versions: 1 2 3 4 5 6 7 8 9 10 11 12 13 14 15 16 17 18 19
865
FTUS43 KGRR 020948 AAB
TAFGRR
TAF AMD
KGRR 020948Z 0210/0306 01009KT P6SM SCT015 OVC050
     FM021500 05010KT P6SM OVC035
     FM030000 05004KT P6SM SCT035=

USA.gov is the U.S. government's official web portal to all federal, state and local government web resources and services.